Time;durP1;ratioP1;P1;durP2;ratioP2;P2;SDS_P1;SDS_P2;PMS_P1;PMS_P2;Temp;Humidity;BMP_temperature;BMP_pressure;BME280_temperature;BME280_humidity;BME280_pressure;Samples;Min_cycle;Max_cycle;Signal;HPM_P1;HPM_P2
2021/06/03 00:00:59;;;;;;;9.35;7.47;;;20.20;72.80;;;;;;5109212;28;20101;-63
2021/06/03 00:03:27;;;;;;;10.75;7.45;;;20.20;73.10;;;;;;5105942;28;20130;-62
2021/06/03 00:05:58;;;;;;;11.73;7.75;;;20.20;73.60;;;;;;5102214;28;211680;-62
2021/06/03 00:08:29;;;;;;;9.45;6.05;;;20.20;74.10;;;;;;5107052;28;20054;-62
2021/06/03 00:11:13;;;;;;;9.40;6.45;;;20.20;74.70;;;;;;5109584;28;20096;-62
2021/06/03 00:13:44;;;;;;;8.30;6.05;;;20.10;75.40;;;;;;5104991;28;20493;-62
2021/06/03 00:16:14;;;;;;;11.18;6.45;;;20.10;76.20;;;;;;5112811;28;20046;-62
2021/06/03 00:18:43;;;;;;;10.48;6.30;;;20.10;76.80;;;;;;5103502;28;20097;-62
2021/06/03 00:21:12;;;;;;;6.93;5.35;;;20.10;77.60;;;;;;5112864;28;20056;-62
2021/06/03 00:23:40;;;;;;;10.20;6.20;;;20.10;78.10;;;;;;5104544;28;20067;-63
2021/06/03 00:26:09;;;;;;;10.68;6.35;;;20.10;78.50;;;;;;5112172;28;20173;-62
2021/06/03 00:28:37;;;;;;;9.63;5.43;;;20.10;78.80;;;;;;5104754;28;20052;-62
2021/06/03 00:31:06;;;;;;;9.07;5.65;;;20.10;78.80;;;;;;5112000;28;20048;-62
2021/06/03 00:33:34;;;;;;;8.45;5.45;;;20.10;78.80;;;;;;5105332;28;20523;-62
2021/06/03 00:36:08;;;;;;;9.90;6.00;;;20.00;78.80;;;;;;5110302;28;20047;-62
2021/06/03 00:38:36;;;;;;;8.68;5.68;;;20.00;79.10;;;;;;5105386;28;20048;-61
2021/06/03 00:41:07;;;;;;;10.57;6.03;;;20.00;79.30;;;;;;5110918;28;20047;-62
2021/06/03 00:43:35;;;;;;;9.57;6.10;;;19.90;79.50;;;;;;5083927;28;20048;-62
2021/06/03 00:46:04;;;;;;;10.10;5.68;;;19.90;79.50;;;;;;5107606;28;20395;-63
2021/06/03 00:48:32;;;;;;;9.15;6.18;;;19.90;79.60;;;;;;5105477;28;20063;-61
2021/06/03 00:51:02;;;;;;;8.88;5.55;;;19.90;79.60;;;;;;5110322;28;20123;-62
2021/06/03 00:53:31;;;;;;;8.10;5.70;;;19.90;79.90;;;;;;5104716;28;20139;-63
2021/06/03 00:56:00;;;;;;;6.57;5.13;;;19.80;80.30;;;;;;5109974;28;20055;-62
2021/06/03 00:58:30;;;;;;;7.50;5.80;;;19.80;80.60;;;;;;5104890;28;20114;-62
2021/06/03 01:01:00;;;;;;;9.02;6.28;;;19.80;81.40;;;;;;5110347;28;20075;-63
2021/06/03 01:03:29;;;;;;;8.65;5.35;;;19.80;82.20;;;;;;5104526;28;20044;-63
2021/06/03 01:06:12;;;;;;;8.80;4.97;;;19.80;83.30;;;;;;5108647;28;20062;-62
2021/06/03 01:08:49;;;;;;;6.47;5.07;;;19.90;84.40;;;;;;5102777;28;20056;-62
2021/06/03 01:11:29;;;;;;;7.63;5.18;;;19.90;85.00;;;;;;5113067;28;20562;-62
2021/06/03 01:14:03;;;;;;;10.27;6.47;;;19.90;85.50;;;;;;5100120;28;20127;-62
2021/06/03 01:16:33;;;;;;;9.30;5.45;;;19.90;85.60;;;;;;5088769;28;20073;-61
2021/06/03 01:19:09;;;;;;;10.50;5.88;;;19.90;86.00;;;;;;5094934;28;20055;-62
2021/06/03 01:21:50;;;;;;;6.97;5.05;;;19.80;86.60;;;;;;5113858;28;20093;-62
2021/06/03 01:24:29;;;;;;;9.30;5.38;;;19.80;87.10;;;;;;5103650;28;20055;-63
2021/06/03 01:27:05;;;;;;;6.68;5.05;;;19.80;87.50;;;;;;5091919;28;20036;-62
2021/06/03 01:30:01;;;;;;;8.02;5.18;;;19.80;88.10;;;;;;5104647;28;20052;-62
2021/06/03 01:32:35;;;;;;;8.07;5.75;;;19.80;89.00;;;;;;5094698;28;20040;-62
2021/06/03 01:35:06;;;;;;;5.78;4.90;;;19.80;90.00;;;;;;5103917;28;20049;-62
2021/06/03 01:37:34;;;;;;;6.65;4.72;;;19.80;90.50;;;;;;5113132;28;20048;-62
2021/06/03 01:40:05;;;;;;;9.23;6.15;;;19.90;90.90;;;;;;5108372;28;20048;-62
2021/06/03 01:42:37;;;;;;;8.00;5.00;;;19.90;91.40;;;;;;5112819;28;20501;-60
2021/06/03 01:45:07;;;;;;;8.55;6.13;;;19.80;91.70;;;;;;5107534;28;20039;-62
2021/06/03 01:47:35;;;;;;;9.95;6.07;;;19.90;92.10;;;;;;5113001;28;20059;-62
2021/06/03 01:50:05;;;;;;;10.35;5.95;;;19.80;92.30;;;;;;5108528;28;20047;-61
2021/06/03 01:52:33;;;;;;;7.47;5.70;;;19.80;92.60;;;;;;5112481;28;20040;-60
2021/06/03 01:55:03;;;;;;;8.93;6.38;;;19.80;93.00;;;;;;5108228;28;20072;-62
2021/06/03 01:57:31;;;;;;;8.70;5.45;;;19.80;93.20;;;;;;5112653;28;20048;-61
2021/06/03 02:00:09;;;;;;;9.50;5.78;;;19.80;93.40;;;;;;5091615;28;20463;-62
2021/06/03 02:02:46;;;;;;;10.18;6.70;;;19.80;93.60;;;;;;5112493;28;20071;-60
2021/06/03 02:05:19;;;;;;;6.93;5.38;;;19.80;93.80;;;;;;5106553;28;20410;-62
2021/06/03 02:07:47;;;;;;;6.78;5.57;;;19.80;94.00;;;;;;5113571;28;20047;-61
2021/06/03 02:10:17;;;;;;;15.32;6.53;;;19.80;94.00;;;;;;5107954;28;20040;-61
2021/06/03 02:13:20;;;;;;;9.52;6.32;;;19.80;94.10;;;;;;5112045;28;20040;-61
2021/06/03 02:16:12;;;;;;;7.85;6.18;;;19.70;94.30;;;;;;5075088;28;20063;-62
2021/06/03 02:18:52;;;;;;;9.10;6.18;;;19.70;94.40;;;;;;5101941;28;20043;-61
2021/06/03 02:21:28;;;;;;;9.38;6.32;;;19.60;94.30;;;;;;5075317;28;20505;-62
2021/06/03 02:23:58;;;;;;;7.35;5.25;;;19.60;94.30;;;;;;5097651;28;20051;-61
2021/06/03 02:26:28;;;;;;;8.23;5.82;;;19.60;94.40;;;;;;5075128;28;20560;-61
2021/06/03 02:29:04;;;;;;;9.27;5.97;;;19.50;94.40;;;;;;5100170;28;20048;-61
2021/06/03 02:31:36;;;;;;;9.90;6.65;;;19.50;94.40;;;;;;5115682;28;20050;-62
2021/06/03 02:34:05;;;;;;;7.25;5.30;;;19.40;94.50;;;;;;5104144;28;20094;-60
2021/06/03 02:36:35;;;;;;;9.27;6.15;;;19.50;94.70;;;;;;5116297;28;20459;-61
2021/06/03 02:39:06;;;;;;;8.10;5.28;;;19.40;95.00;;;;;;5102925;28;20048;-61
2021/06/03 02:41:36;;;;;;;8.32;5.50;;;19.40;95.20;;;;;;5116675;28;20082;-61
2021/06/03 02:44:05;;;;;;;10.38;6.40;;;19.40;95.20;;;;;;5102554;28;20414;-61
2021/06/03 02:46:34;;;;;;;9.70;7.03;;;19.40;95.30;;;;;;5114495;28;20056;-60
2021/06/03 02:49:04;;;;;;;10.25;6.20;;;19.50;95.60;;;;;;5102216;28;20109;-61
2021/06/03 02:51:33;;;;;;;9.13;5.80;;;19.50;95.50;;;;;;5115391;28;20036;-61
2021/06/03 02:54:03;;;;;;;8.38;5.90;;;19.40;95.50;;;;;;5103508;28;20044;-60
2021/06/03 02:56:37;;;;;;;6.70;5.20;;;19.50;95.60;;;;;;5115253;28;20427;-61
2021/06/03 02:59:05;;;;;;;8.88;6.53;;;19.50;95.70;;;;;;5102614;28;20052;-61
2021/06/03 03:01:33;;;;;;;8.02;5.78;;;19.40;95.80;;;;;;5114700;28;20044;-61
2021/06/03 03:04:01;;;;;;;6.85;5.60;;;19.40;95.90;;;;;;5102301;28;20101;-60
2021/06/03 03:06:29;;;;;;;23.75;5.88;;;19.40;96.00;;;;;;5074015;28;20143;-61
2021/06/03 03:08:58;;;;;;;6.20;4.97;;;19.40;95.90;;;;;;5085154;28;20065;-62
2021/06/03 03:11:27;;;;;;;5.65;4.30;;;19.40;95.50;;;;;;5075221;28;20084;-61
2021/06/03 03:13:56;;;;;;;12.18;4.43;;;19.40;95.20;;;;;;5084869;28;20131;-61
2021/06/03 03:16:24;;;;;;;6.25;4.60;;;19.40;94.70;;;;;;5115526;28;20062;-62
2021/06/03 03:18:56;;;;;;;5.95;4.45;;;19.40;94.50;;;;;;5102920;28;20047;-62
2021/06/03 03:21:24;;;;;;;7.15;4.95;;;19.40;94.40;;;;;;5115873;28;20056;-62
2021/06/03 03:23:52;;;;;;;7.75;5.03;;;19.40;94.30;;;;;;5104603;28;20051;-62
2021/06/03 03:26:21;;;;;;;7.10;5.53;;;19.40;94.20;;;;;;5115194;28;20444;-61
2021/06/03 03:28:49;;;;;;;7.00;4.95;;;19.30;94.10;;;;;;5103308;28;20401;-61
2021/06/03 03:31:17;;;;;;;9.05;5.40;;;19.40;94.00;;;;;;5113352;28;20501;-61
2021/06/03 03:33:47;;;;;;;6.15;4.82;;;19.40;94.00;;;;;;5103863;28;20066;-62
2021/06/03 03:36:16;;;;;;;7.43;5.20;;;19.40;93.90;;;;;;5113948;28;20047;-61
2021/06/03 03:38:48;;;;;;;10.43;6.05;;;19.40;93.90;;;;;;5104825;28;20048;-61
2021/06/03 03:41:15;;;;;;;5.97;4.63;;;19.40;93.90;;;;;;5112755;28;20455;-61
2021/06/03 03:43:43;;;;;;;7.22;5.50;;;19.50;94.00;;;;;;5105542;28;20147;-62
2021/06/03 03:46:11;;;;;;;9.30;5.85;;;19.50;94.00;;;;;;5112112;28;20051;-61
2021/06/03 03:48:43;;;;;;;10.13;6.20;;;19.50;93.90;;;;;;5104029;28;20457;-62
2021/06/03 03:51:14;;;;;;;7.95;5.20;;;19.50;93.80;;;;;;5112003;28;20485;-62
2021/06/03 03:53:43;;;;;;;11.65;5.95;;;19.60;93.80;;;;;;5105767;28;20044;-62
2021/06/03 03:56:18;;;;;;;6.90;4.68;;;19.60;93.60;;;;;;5114072;28;20104;-62
2021/06/03 03:58:48;;;;;;;7.47;5.68;;;19.70;93.50;;;;;;5103796;27;20131;-61
2021/06/03 04:01:17;;;;;;;6.95;5.15;;;19.80;93.70;;;;;;5112542;28;20396;-61
2021/06/03 04:03:49;;;;;;;9.15;5.43;;;19.80;93.30;;;;;;5103188;28;20044;-62
2021/06/03 04:06:19;;;;;;;10.82;6.32;;;19.80;93.30;;;;;;5112254;28;20146;-62
2021/06/03 04:08:49;;;;;;;11.73;8.07;;;19.90;93.30;;;;;;5102715;28;20134;-61
2021/06/03 04:11:19;;;;;;;11.45;7.30;;;20.00;93.30;;;;;;5113721;28;20452;-61
2021/06/03 04:13:51;;;;;;;10.18;6.72;;;20.10;93.20;;;;;;5102720;28;20551;-62
2021/06/03 04:16:19;;;;;;;9.10;6.93;;;20.20;93.10;;;;;;5112560;28;20052;-62
2021/06/03 04:18:47;;;;;;;8.55;6.78;;;20.30;93.00;;;;;;5103868;28;20043;-62
2021/06/03 04:21:15;;;;;;;7.90;6.53;;;20.40;93.00;;;;;;5112822;28;20047;-62
2021/06/03 04:23:43;;;;;;;11.43;6.72;;;20.40;92.90;;;;;;5104739;28;20071;-62
2021/06/03 04:26:11;;;;;;;7.72;6.38;;;20.50;92.80;;;;;;5111185;28;20039;-62
2021/06/03 04:28:39;;;;;;;7.63;5.85;;;20.60;92.70;;;;;;5104785;28;20037;-61
2021/06/03 04:31:07;;;;;;;9.38;6.03;;;20.70;92.70;;;;;;5111892;28;20047;-62
2021/06/03 04:33:35;;;;;;;10.52;5.78;;;20.80;93.10;;;;;;5105752;28;20120;-63
2021/06/03 04:36:03;;;;;;;9.85;5.68;;;20.90;93.50;;;;;;5110869;28;20143;-62
2021/06/03 04:38:31;;;;;;;10.10;6.18;;;20.90;93.80;;;;;;5106162;28;20059;-62
2021/06/03 04:40:58;;;;;;;8.75;5.80;;;21.00;94.50;;;;;;5109357;28;20490;-61
2021/06/03 04:43:27;;;;;;;8.35;5.68;;;21.00;94.50;;;;;;5106626;28;20054;-62
2021/06/03 04:45:55;;;;;;;8.77;5.95;;;21.10;94.60;;;;;;5109902;28;20054;-61
2021/06/03 04:48:23;;;;;;;7.55;5.72;;;21.20;94.60;;;;;;5107009;28;20126;-62
2021/06/03 04:50:52;;;;;;;7.93;6.28;;;21.30;94.50;;;;;;5107908;28;20099;-61
2021/06/03 04:53:20;;;;;;;9.27;5.60;;;21.50;94.20;;;;;;5107359;28;20130;-62
2021/06/03 04:55:48;;;;;;;6.43;5.30;;;21.60;94.00;;;;;;5108704;28;20059;-62
2021/06/03 04:58:16;;;;;;;8.52;6.82;;;21.70;93.80;;;;;;5107599;28;20097;-62
2021/06/03 05:00:44;;;;;;;8.30;5.90;;;21.80;93.60;;;;;;5107732;28;20063;-62
2021/06/03 05:03:14;;;;;;;7.18;5.45;;;21.90;93.50;;;;;;5107962;28;20044;-61
2021/06/03 05:05:42;;;;;;;9.38;6.10;;;22.00;93.40;;;;;;5107353;28;20489;-62
2021/06/03 05:08:10;;;;;;;8.90;6.40;;;22.20;93.30;;;;;;5108668;28;20396;-62
2021/06/03 05:10:38;;;;;;;8.50;5.70;;;22.30;93.10;;;;;;5100758;28;20119;-61
2021/06/03 05:13:06;;;;;;;9.20;6.22;;;22.40;92.90;;;;;;5098886;28;20075;-61
2021/06/03 05:15:34;;;;;;;9.02;6.30;;;22.40;93.00;;;;;;5105051;28;20055;-61
2021/06/03 05:18:04;;;;;;;10.40;5.47;;;22.60;92.60;;;;;;5109082;27;20058;-61
2021/06/03 05:20:38;;;;;;;7.97;6.57;;;22.60;92.40;;;;;;5106508;28;20054;-62
2021/06/03 05:23:07;;;;;;;10.27;6.68;;;22.80;92.20;;;;;;5108880;28;20044;-62
2021/06/03 05:25:35;;;;;;;8.93;5.72;;;22.90;92.00;;;;;;5106471;28;20055;-61
2021/06/03 05:28:03;;;;;;;7.10;5.72;;;23.00;91.80;;;;;;5109017;28;20070;-62
2021/06/03 05:30:32;;;;;;;8.35;6.22;;;23.10;91.80;;;;;;5105540;28;20062;-60
2021/06/03 05:33:00;;;;;;;10.07;5.70;;;23.20;91.30;;;;;;5109756;28;20047;-62
2021/06/03 05:35:28;;;;;;;7.55;5.35;;;23.30;91.20;;;;;;5105491;28;20078;-62
2021/06/03 05:37:56;;;;;;;8.40;5.97;;;23.40;91.00;;;;;;5110286;28;20519;-62
2021/06/03 05:40:27;;;;;;;9.23;5.38;;;23.50;90.70;;;;;;5096144;28;20089;-62
2021/06/03 05:42:57;;;;;;;9.07;5.30;;;23.60;90.30;;;;;;5109610;28;20489;-62
2021/06/03 05:45:26;;;;;;;6.00;4.93;;;23.70;89.70;;;;;;5096446;28;20058;-62
2021/06/03 05:47:54;;;;;;;8.50;5.20;;;23.80;88.20;;;;;;5110026;28;20058;-62
2021/06/03 05:50:25;;;;;;;9.02;4.97;;;24.00;87.50;;;;;;5104519;28;20079;-62
2021/06/03 05:52:53;;;;;;;5.10;3.75;;;24.10;86.90;;;;;;5109970;28;20044;-62
2021/06/03 05:55:22;;;;;;;6.18;4.10;;;24.30;86.50;;;;;;5104284;28;20048;-62
2021/06/03 05:57:50;;;;;;;7.70;4.78;;;24.30;86.10;;;;;;5109745;28;20047;-62
2021/06/03 06:00:22;;;;;;;8.95;4.18;;;24.50;85.90;;;;;;5103055;28;20093;-62
2021/06/03 06:02:54;;;;;;;5.25;3.42;;;24.60;84.80;;;;;;5109594;28;20043;-63
2021/06/03 06:08:12;;;;;;;7.60;3.10;;;24.90;82.00;;;;;;5107858;28;20079;-62
2021/06/03 06:10:40;;;;;;;5.10;2.92;;;25.00;81.00;;;;;;5106674;28;20109;-62
2021/06/03 06:13:08;;;;;;;3.97;3.03;;;25.00;80.10;;;;;;5108293;28;20505;-63
2021/06/03 06:15:37;;;;;;;4.28;2.80;;;25.10;79.50;;;;;;5106319;28;20493;-63
2021/06/03 06:18:06;;;;;;;4.00;2.30;;;25.20;77.80;;;;;;5108498;28;20070;-63
2021/06/03 06:20:35;;;;;;;4.47;2.95;;;25.30;75.00;;;;;;5105865;28;20047;-62
2021/06/03 06:23:03;;;;;;;4.82;2.78;;;25.40;74.40;;;;;;5112743;28;20077;-63
2021/06/03 06:25:31;;;;;;;5.70;3.42;;;25.40;74.60;;;;;;5109109;28;20055;-63
2021/06/03 06:27:59;;;;;;;4.60;3.40;;;25.60;74.30;;;;;;5113035;28;20040;-62
2021/06/03 06:30:28;;;;;;;4.10;2.83;;;25.70;73.40;;;;;;5090727;28;20040;-63
2021/06/03 06:32:56;;;;;;;4.68;2.78;;;25.80;72.40;;;;;;5113144;28;20044;-63
2021/06/03 06:35:24;;;;;;;4.45;2.67;;;25.80;71.30;;;;;;5098769;28;20101;-63
2021/06/03 06:37:52;;;;;;;17.02;12.23;;;25.90;70.50;;;;;;5113200;28;20058;-63
2021/06/03 06:40:21;;;;;;;16.70;11.02;;;26.00;70.30;;;;;;5107749;28;20044;-62
2021/06/03 06:42:55;;;;;;;9.77;6.75;;;26.10;70.00;;;;;;5112668;28;20508;-63
2021/06/03 06:45:26;;;;;;;6.18;4.30;;;26.20;70.00;;;;;;5098710;28;20493;-63
2021/06/03 06:47:55;;;;;;;5.30;3.20;;;26.30;69.50;;;;;;5112838;28;20055;-63
2021/06/03 06:50:26;;;;;;;8.82;4.80;;;26.40;67.50;;;;;;5098642;28;20568;-63
2021/06/03 06:52:54;;;;;;;3.60;2.53;;;26.40;65.50;;;;;;5112689;28;20096;-63
2021/06/03 06:55:23;;;;;;;3.53;2.67;;;26.50;63.60;;;;;;5105906;28;20067;-63
2021/06/03 06:57:53;;;;;;;8.98;4.43;;;26.60;63.80;;;;;;5112851;28;20075;-63
2021/06/03 07:00:26;;;;;;;3.90;2.85;;;26.60;64.80;;;;;;5107355;28;20056;-63
2021/06/03 07:02:55;;;;;;;4.88;3.25;;;26.70;64.40;;;;;;5112521;28;20048;-63
2021/06/03 07:05:23;;;;;;;6.20;3.63;;;26.70;63.90;;;;;;5096530;28;20050;-63
2021/06/03 07:07:51;;;;;;;3.22;2.20;;;26.80;60.20;;;;;;5112575;28;20497;-63
2021/06/03 07:10:20;;;;;;;6.57;3.22;;;26.90;57.80;;;;;;5107029;28;20043;-63
2021/06/03 07:12:50;;;;;;;4.18;3.28;;;27.00;59.10;;;;;;5112377;28;20059;-63
2021/06/03 07:15:19;;;;;;;19.98;15.20;;;27.10;59.50;;;;;;5106982;28;20086;-62
2021/06/03 07:17:49;;;;;;;9.57;6.78;;;27.20;58.20;;;;;;5112255;28;20439;-63
2021/06/03 07:20:19;;;;;;;4.43;2.95;;;27.20;56.00;;;;;;5106715;28;20052;-63
2021/06/03 07:22:50;;;;;;;4.25;2.60;;;27.10;54.70;;;;;;5112086;28;20047;-63
2021/06/03 07:25:20;;;;;;;4.88;2.65;;;27.00;55.50;;;;;;5106914;28;20401;-63
2021/06/03 07:27:50;;;;;;;4.20;2.53;;;27.10;56.40;;;;;;5111898;28;20069;-63
2021/06/03 07:30:21;;;;;;;5.13;4.18;;;27.00;56.60;;;;;;5106413;28;20093;-63
2021/06/03 07:32:51;;;;;;;4.15;3.13;;;26.90;56.50;;;;;;5092595;28;20063;-63
2021/06/03 07:35:20;;;;;;;5.00;3.85;;;26.80;56.30;;;;;;5104754;28;20051;-63
2021/06/03 07:37:49;;;;;;;4.95;2.95;;;26.90;56.40;;;;;;5110180;28;20043;-63
2021/06/03 07:40:20;;;;;;;5.15;2.65;;;26.90;57.00;;;;;;5105733;28;20036;-63
2021/06/03 07:42:49;;;;;;;2.67;2.00;;;27.00;57.30;;;;;;5111382;28;20071;-63
2021/06/03 07:45:22;;;;;;;3.33;2.05;;;27.00;56.30;;;;;;5105738;27;20074;-63
2021/06/03 07:47:53;;;;;;;3.75;2.65;;;27.00;55.30;;;;;;5109986;28;20497;-63
2021/06/03 07:50:21;;;;;;;4.13;2.10;;;27.00;55.50;;;;;;5105777;28;20055;-63
2021/06/03 07:52:50;;;;;;;2.60;1.63;;;26.90;54.80;;;;;;5110740;28;20039;-63
2021/06/03 07:55:19;;;;;;;3.13;1.65;;;26.70;54.90;;;;;;5105776;28;20043;-63
2021/06/03 07:57:50;;;;;;;3.97;2.63;;;26.70;54.50;;;;;;5110020;28;20489;-63
2021/06/03 08:00:20;;;;;;;3.13;2.05;;;26.70;55.10;;;;;;5105568;28;20054;-63
2021/06/03 08:02:49;;;;;;;4.85;2.47;;;26.80;55.30;;;;;;5110714;27;20044;-63
2021/06/03 08:05:22;;;;;;;4.05;2.03;;;27.00;55.40;;;;;;5104456;28;20078;-63
2021/06/03 08:07:52;;;;;;;11.15;9.30;;;27.10;54.50;;;;;;5109266;28;20048;-63
2021/06/03 08:10:33;;;;;;;4.10;3.13;;;27.10;53.70;;;;;;5104196;28;20181;-62
2021/06/03 08:13:03;;;;;;;11.77;9.57;;;27.20;53.90;;;;;;5109127;28;20036;-63
2021/06/03 08:15:32;;;;;;;4.18;3.05;;;27.10;53.40;;;;;;5103674;28;20044;-63
2021/06/03 08:18:02;;;;;;;2.90;2.17;;;27.00;51.90;;;;;;5109088;28;20042;-62
2021/06/03 08:20:35;;;;;;;3.38;1.88;;;26.90;52.60;;;;;;5104974;28;20047;-63
2021/06/03 08:23:05;;;;;;;2.58;1.98;;;27.00;53.40;;;;;;5108608;28;20065;-63
2021/06/03 08:25:33;;;;;;;2.90;2.05;;;26.90;52.40;;;;;;5105734;28;20087;-63
2021/06/03 08:28:02;;;;;;;4.65;2.33;;;26.90;51.40;;;;;;5108235;28;20043;-63
2021/06/03 08:30:31;;;;;;;4.93;2.53;;;27.00;52.40;;;;;;5103449;28;20128;-63
2021/06/03 08:32:59;;;;;;;2.75;1.50;;;27.10;53.00;;;;;;5108655;28;20040;-63
2021/06/03 08:35:27;;;;;;;6.30;1.88;;;27.20;53.30;;;;;;5104235;28;20569;-63
2021/06/03 08:37:57;;;;;;;3.67;2.28;;;27.30;53.90;;;;;;5109080;28;20067;-62
2021/06/03 08:40:29;;;;;;;2.28;1.45;;;27.40;54.00;;;;;;5096350;28;20048;-63
2021/06/03 08:42:59;;;;;;;3.63;1.77;;;27.40;53.70;;;;;;5110415;28;20048;-63
2021/06/03 08:45:29;;;;;;;5.72;2.30;;;27.40;54.50;;;;;;5096570;28;20104;-63
2021/06/03 08:47:58;;;;;;;4.68;1.75;;;27.30;55.70;;;;;;5110320;28;20132;-63
2021/06/03 08:50:29;;;;;;;4.15;2.17;;;27.40;55.50;;;;;;5095863;28;20075;-63
2021/06/03 08:52:59;;;;;;;2.00;1.45;;;27.40;56.10;;;;;;5110075;28;20119;-62
2021/06/03 08:58:17;;;;;;;3.13;1.63;;;27.10;55.20;;;;;;5106346;28;20111;-62
2021/06/03 09:00:47;;;;;;;3.20;1.73;;;27.00;55.40;;;;;;5106411;28;20050;-63
2021/06/03 09:03:16;;;;;;;4.18;2.17;;;27.10;55.00;;;;;;5107309;28;20393;-62
2021/06/03 09:05:45;;;;;;;3.08;1.60;;;27.30;55.90;;;;;;5107132;28;20109;-63
2021/06/03 09:09:11;;;;;;;2.58;1.83;;;27.30;55.70;;;;;;5106442;28;20051;-63
2021/06/03 09:15:55;;;;;;;2.40;1.58;;;27.70;56.00;;;;;;5050351;28;20131;-63
2021/06/03 09:18:45;;;;;;;2.75;1.95;;;27.80;55.90;;;;;;5062002;28;20471;-63
2021/06/03 09:21:28;;;;;;;2.20;1.40;;;27.90;55.20;;;;;;5068468;28;20059;-63
2021/06/03 09:23:58;;;;;;;7.60;1.95;;;28.00;55.40;;;;;;5058798;28;20483;-63
2021/06/03 09:26:30;;;;;;;2.55;1.55;;;28.00;55.60;;;;;;5030554;28;20038;-63
2021/06/03 09:29:00;;;;;;;2.35;1.67;;;28.00;55.30;;;;;;5031030;28;20080;-63
2021/06/03 09:31:33;;;;;;;3.15;2.30;;;27.80;55.10;;;;;;5030514;28;20064;-63
2021/06/03 09:34:03;;;;;;;4.05;2.17;;;27.90;54.70;;;;;;5038974;28;20072;-63
2021/06/03 09:36:46;;;;;;;6.13;3.10;;;27.90;55.20;;;;;;5030416;28;20527;-63
2021/06/03 09:39:42;;;;;;;6.32;4.97;;;27.80;54.90;;;;;;5056526;28;20060;-63
2021/06/03 09:42:16;;;;;;;3.65;2.58;;;27.80;54.60;;;;;;5022671;28;20101;-62
2021/06/03 09:44:49;;;;;;;3.90;2.55;;;27.80;54.80;;;;;;5080207;28;20067;-63
2021/06/03 09:47:38;;;;;;;12.63;6.75;;;27.60;54.80;;;;;;5069885;28;20068;-63
2021/06/03 09:50:10;;;;;;;6.82;4.88;;;27.70;54.90;;;;;;5064488;28;20044;-62
2021/06/03 09:52:38;;;;;;;5.28;3.05;;;27.70;54.80;;;;;;5086627;28;20040;-62
2021/06/03 09:55:11;;;;;;;5.65;2.60;;;27.80;54.70;;;;;;5081493;28;20098;-63
2021/06/03 09:57:43;;;;;;;7.78;3.03;;;27.80;54.80;;;;;;5056499;28;20468;-62
2021/06/03 10:00:15;;;;;;;3.78;2.40;;;27.70;54.70;;;;;;5083008;28;20078;-63
2021/06/03 10:02:44;;;;;;;4.43;2.78;;;27.60;54.90;;;;;;5077033;28;20498;-63
2021/06/03 10:05:20;;;;;;;5.72;2.72;;;27.60;55.00;;;;;;5068134;28;20048;-63
2021/06/03 10:07:56;;;;;;;5.55;2.50;;;27.60;55.00;;;;;;5090260;28;20044;-63
2021/06/03 10:10:25;;;;;;;;;;;27.70;54.10;;;;;;5049692;28;20040;-63
2021/06/03 10:12:53;;;;;;;3.63;2.63;;;27.80;53.80;;;;;;5057532;28;19984;-63
2021/06/03 10:15:21;;;;;;;5.45;2.58;;;27.70;54.20;;;;;;5106159;28;20056;-62
2021/06/03 10:17:52;;;;;;;3.75;2.53;;;27.60;54.10;;;;;;5111734;28;20044;-63
2021/06/03 10:20:37;;;;;;;5.75;2.45;;;27.60;54.30;;;;;;5107683;28;20051;-63
2021/06/03 10:23:09;;;;;;;2.97;1.83;;;27.50;54.50;;;;;;5112212;28;20436;-63
2021/06/03 10:25:40;;;;;;;4.53;2.03;;;27.50;54.40;;;;;;5108827;28;20047;-62
2021/06/03 10:28:10;;;;;;;4.20;2.50;;;27.50;54.30;;;;;;5111023;27;20043;-63
2021/06/03 10:30:41;;;;;;;3.60;2.40;;;27.50;54.10;;;;;;5109561;28;20051;-63
2021/06/03 10:33:30;;;;;;;3.20;2.50;;;27.60;54.00;;;;;;5111102;28;20043;-63
2021/06/03 10:36:02;;;;;;;5.22;2.80;;;27.50;54.10;;;;;;5112268;28;20098;-63
2021/06/03 10:38:31;;;;;;;3.42;2.40;;;27.60;54.30;;;;;;5108418;27;20060;-63
2021/06/03 10:41:04;;;;;;;5.65;2.28;;;27.70;53.90;;;;;;5112052;28;20047;-63
2021/06/03 10:43:37;;;;;;;5.88;2.97;;;27.60;53.10;;;;;;5107614;28;20048;-63
2021/06/03 10:46:08;;;;;;;3.35;2.45;;;27.40;52.50;;;;;;5113328;28;20438;-63
2021/06/03 10:48:36;;;;;;;3.92;2.50;;;27.30;52.80;;;;;;5105342;28;20044;-62
2021/06/03 10:51:07;;;;;;;4.78;3.15;;;27.30;52.90;;;;;;5112745;28;20561;-63
2021/06/03 10:53:44;;;;;;;4.28;2.75;;;27.40;52.90;;;;;;5105822;28;20044;-63
2021/06/03 10:56:21;;;;;;;5.38;2.17;;;27.40;52.70;;;;;;5114298;28;20039;-63
2021/06/03 10:58:50;;;;;;;3.00;1.90;;;27.40;52.50;;;;;;5104693;28;20036;-62
2021/06/03 11:01:20;;;;;;;4.60;2.05;;;27.40;52.10;;;;;;5113393;28;20127;-63
2021/06/03 11:03:53;;;;;;;3.58;1.92;;;27.40;52.60;;;;;;5105375;28;20044;-63
2021/06/03 11:06:23;;;;;;;2.80;1.85;;;27.50;52.70;;;;;;5114624;28;20056;-63
2021/06/03 11:09:05;;;;;;;4.57;2.22;;;27.50;52.40;;;;;;5103894;28;20383;-63
2021/06/03 11:11:35;;;;;;;2.65;1.98;;;27.50;52.20;;;;;;5074042;28;20044;-63
2021/06/03 11:14:19;;;;;;;3.47;2.15;;;27.50;51.90;;;;;;5085292;28;20050;-63
2021/06/03 11:16:56;;;;;;;2.83;1.85;;;27.40;51.50;;;;;;5115506;28;20051;-62
2021/06/03 11:19:26;;;;;;;4.50;2.92;;;27.30;51.30;;;;;;5082136;28;20405;-63
2021/06/03 11:21:57;;;;;;;4.25;2.05;;;27.30;51.90;;;;;;5093588;28;20036;-62
2021/06/03 11:24:25;;;;;;;3.33;2.00;;;27.30;52.00;;;;;;5103295;28;20047;-63
2021/06/03 11:26:56;;;;;;;5.88;1.92;;;27.30;52.70;;;;;;5114060;28;20060;-63
2021/06/03 11:29:28;;;;;;;2.53;2.00;;;27.40;52.90;;;;;;5103077;28;20085;-63
2021/06/03 11:32:05;;;;;;;5.22;1.80;;;27.50;53.00;;;;;;5114674;28;20485;-62
2021/06/03 11:34:41;;;;;;;2.55;1.80;;;27.60;52.40;;;;;;5103493;28;20048;-62
2021/06/03 11:37:35;;;;;;;2.80;1.50;;;27.60;51.60;;;;;;5114019;28;20043;-63
2021/06/03 11:40:07;;;;;;;6.88;2.00;;;27.50;51.50;;;;;;5099597;28;20126;-63
2021/06/03 11:42:40;;;;;;;3.35;2.00;;;27.50;51.20;;;;;;5096519;28;20126;-63
2021/06/03 11:45:24;;;;;;;3.10;1.70;;;27.20;51.30;;;;;;5105961;28;20130;-63
2021/06/03 11:47:53;;;;;;;3.53;1.83;;;27.10;51.50;;;;;;5111419;28;20397;-63
2021/06/03 11:50:20;;;;;;;3.55;2.53;;;27.10;51.90;;;;;;5104488;28;20051;-62
2021/06/03 11:53:01;;;;;;;3.63;2.17;;;27.10;52.10;;;;;;5109622;28;20062;-63
2021/06/03 11:55:37;;;;;;;4.10;2.00;;;27.00;52.20;;;;;;5098405;28;20055;-62
2021/06/03 11:58:24;;;;;;;3.03;1.95;;;27.10;52.40;;;;;;5109911;28;20079;-62
2021/06/03 12:01:08;;;;;;;3.97;1.77;;;27.00;52.30;;;;;;5108599;28;20405;-63
2021/06/03 12:03:46;;;;;;;2.90;1.42;;;27.10;52.10;;;;;;5105698;28;20048;-63
2021/06/03 12:06:28;;;;;;;2.55;1.50;;;26.90;51.90;;;;;;5110898;28;20056;-62
2021/06/03 12:08:58;;;;;;;3.90;2.00;;;26.80;52.30;;;;;;5101196;28;20048;-63
2021/06/03 12:11:36;;;;;;;3.03;1.70;;;26.80;52.50;;;;;;5114380;28;20594;-62
2021/06/03 12:14:16;;;;;;;4.10;2.15;;;26.80;52.70;;;;;;5100633;28;20044;-62
2021/06/03 12:16:54;;;;;;;4.32;1.90;;;26.70;53.00;;;;;;5114004;28;20117;-62
2021/06/03 12:19:24;;;;;;;2.58;1.50;;;26.80;53.20;;;;;;5103727;28;20085;-63
2021/06/03 12:21:58;;;;;;;2.63;1.90;;;26.80;52.50;;;;;;5093960;28;20048;-63
2021/06/03 12:24:51;;;;;;;2.70;1.55;;;26.70;52.60;;;;;;5104912;28;20047;-62
2021/06/03 12:27:22;;;;;;;2.25;1.55;;;26.70;53.00;;;;;;5093165;28;20063;-63
2021/06/03 12:29:51;;;;;;;2.22;1.50;;;26.50;53.30;;;;;;5105159;28;20101;-63
2021/06/03 12:32:20;;;;;;;3.45;1.77;;;26.50;53.70;;;;;;5111559;28;20123;-63
2021/06/03 12:34:49;;;;;;;3.55;2.10;;;26.50;53.90;;;;;;5103009;28;20100;-62
2021/06/03 12:37:31;;;;;;;3.22;1.75;;;26.60;53.40;;;;;;5111374;28;20058;-63
2021/06/03 12:40:03;;;;;;;2.83;1.63;;;26.60;53.60;;;;;;5099032;28;20084;-62
2021/06/03 12:42:31;;;;;;;2.58;1.80;;;26.70;53.90;;;;;;5095208;28;20493;-62
2021/06/03 12:45:09;;;;;;;3.35;1.70;;;26.70;54.00;;;;;;5103600;28;20044;-63
2021/06/03 12:47:38;;;;;;;2.47;1.60;;;26.60;53.90;;;;;;5110130;28;20058;-63
2021/06/03 12:50:08;;;;;;;3.03;1.85;;;26.50;54.10;;;;;;5104499;28;20568;-63
2021/06/03 12:52:37;;;;;;;4.72;2.00;;;26.40;54.00;;;;;;5108720;28;20841;-62
2021/06/03 12:55:07;;;;;;;2.75;1.70;;;26.40;53.50;;;;;;5104700;28;20046;-62
2021/06/03 12:57:36;;;;;;;3.00;1.98;;;26.40;53.30;;;;;;5109213;28;20130;-63
2021/06/03 13:00:13;;;;;;;2.42;1.63;;;26.20;53.40;;;;;;5104977;28;20048;-62
2021/06/03 13:02:42;;;;;;;2.50;1.60;;;26.30;53.40;;;;;;5107628;28;20040;-63
2021/06/03 13:05:12;;;;;;;3.40;1.80;;;26.20;52.70;;;;;;5102545;28;20104;-62
2021/06/03 13:07:44;;;;;;;2.03;1.30;;;26.20;52.20;;;;;;5108439;28;20071;-63
2021/06/03 13:10:20;;;;;;;5.70;1.63;;;26.20;52.60;;;;;;5101747;28;20061;-63
2021/06/03 13:13:01;;;;;;;3.25;1.55;;;26.20;52.50;;;;;;5108336;28;20105;-62
2021/06/03 13:15:38;;;;;;;2.40;1.60;;;26.30;52.80;;;;;;5082117;28;20486;-63
2021/06/03 13:18:07;;;;;;;2.63;1.80;;;26.20;52.10;;;;;;5096933;28;20421;-63